sensor_id;sensor_type;location;lat;lon;timestamp;pressure;altitude;pressure_sealevel;temperature;humidity
54453;BME280;40363;52.270;10.546;2023-05-12T00:01:22;76446.13;;;-147.06;100.00
54453;BME280;40363;52.270;10.546;2023-05-12T00:03:48;76454.34;;;-147.06;100.00
54453;BME280;40363;52.270;10.546;2023-05-12T00:06:17;76454.34;;;-147.06;100.00
54453;BME280;40363;52.270;10.546;2023-05-12T00:08:45;76452.28;;;-147.06;100.00
54453;BME280;40363;52.270;10.546;2023-05-12T00:11:12;76446.13;;;-147.06;100.00
54453;BME280;40363;52.270;10.546;2023-05-12T00:13:38;76454.34;;;-147.06;100.00
54453;BME280;40363;52.270;10.546;2023-05-12T00:16:05;76454.34;;;-147.06;100.00
54453;BME280;40363;52.270;10.546;2023-05-12T00:18:32;76454.34;;;-147.06;100.00
54453;BME280;40363;52.270;10.546;2023-05-12T00:20:58;76444.06;;;-147.06;100.00
54453;BME280;40363;52.270;10.546;2023-05-12T00:23:25;76448.19;;;-147.06;100.00
54453;BME280;40363;52.270;10.546;2023-05-12T00:25:53;76458.47;;;-147.06;100.00
54453;BME280;40363;52.270;10.546;2023-05-12T00:28:19;76458.47;;;-147.06;100.00
54453;BME280;40363;52.270;10.546;2023-05-12T00:30:46;76450.25;;;-147.06;100.00
54453;BME280;40363;52.270;10.546;2023-05-12T00:33:12;76448.19;;;-147.06;100.00
54453;BME280;40363;52.270;10.546;2023-05-12T00:35:40;76448.19;;;-147.06;100.00
54453;BME280;40363;52.270;10.546;2023-05-12T00:38:09;76460.53;;;-147.06;100.00
54453;BME280;40363;52.270;10.546;2023-05-12T00:40:35;76450.25;;;-147.06;100.00
54453;BME280;40363;52.270;10.546;2023-05-12T00:43:03;76452.28;;;-147.06;100.00
54453;BME280;40363;52.270;10.546;2023-05-12T00:45:30;76462.56;;;-147.06;100.00
54453;BME280;40363;52.270;10.546;2023-05-12T00:47:57;76464.63;;;-147.06;100.00
54453;BME280;40363;52.270;10.546;2023-05-12T00:50:23;76468.75;;;-147.06;100.00
54453;BME280;40363;52.270;10.546;2023-05-12T00:52:50;76474.91;;;-147.06;100.00
54453;BME280;40363;52.270;10.546;2023-05-12T00:55:17;76485.19;;;-147.06;100.00
54453;BME280;40363;52.270;10.546;2023-05-12T00:57:44;76481.06;;;-147.06;100.00
54453;BME280;40363;52.270;10.546;2023-05-12T01:00:13;76476.97;;;-147.06;100.00
54453;BME280;40363;52.270;10.546;2023-05-12T01:02:39;76481.06;;;-147.06;100.00
54453;BME280;40363;52.270;10.546;2023-05-12T01:05:07;76481.06;;;-147.06;100.00
54453;BME280;40363;52.270;10.546;2023-05-12T01:07:34;76491.34;;;-147.06;100.00
54453;BME280;40363;52.270;10.546;2023-05-12T01:10:02;76476.97;;;-147.06;100.00
54453;BME280;40363;52.270;10.546;2023-05-12T01:12:28;76472.84;;;-147.06;100.00
54453;BME280;40363;52.270;10.546;2023-05-12T01:14:56;76476.97;;;-147.06;100.00
54453;BME280;40363;52.270;10.546;2023-05-12T01:17:28;76497.50;;;-147.06;100.00
54453;BME280;40363;52.270;10.546;2023-05-12T01:19:58;76485.19;;;-147.06;100.00
54453;BME280;40363;52.270;10.546;2023-05-12T01:22:26;76487.25;;;-147.06;100.00
54453;BME280;40363;52.270;10.546;2023-05-12T01:24:58;76493.41;;;-147.06;100.00
54453;BME280;40363;52.270;10.546;2023-05-12T01:27:27;76495.47;;;-147.06;100.00
54453;BME280;40363;52.270;10.546;2023-05-12T01:29:56;76501.63;;;-147.06;100.00
54453;BME280;40363;52.270;10.546;2023-05-12T01:32:23;76513.97;;;-147.06;100.00
54453;BME280;40363;52.270;10.546;2023-05-12T01:34:50;76513.97;;;-147.06;100.00
54453;BME280;40363;52.270;10.546;2023-05-12T01:37:17;76513.97;;;-147.06;100.00
54453;BME280;40363;52.270;10.546;2023-05-12T01:39:44;76520.13;;;-147.06;100.00
54453;BME280;40363;52.270;10.546;2023-05-12T01:42:10;76522.19;;;-147.06;100.00
54453;BME280;40363;52.270;10.546;2023-05-12T01:44:38;76522.19;;;-147.06;100.00
54453;BME280;40363;52.270;10.546;2023-05-12T01:47:05;76522.19;;;-147.06;100.00
54453;BME280;40363;52.270;10.546;2023-05-12T01:49:34;76526.28;;;-147.06;100.00
54453;BME280;40363;52.270;10.546;2023-05-12T01:52:00;76528.34;;;-147.06;100.00
54453;BME280;40363;52.270;10.546;2023-05-12T01:54:27;76526.28;;;-147.06;100.00
54453;BME280;40363;52.270;10.546;2023-05-12T01:56:53;76530.41;;;-147.06;100.00
54453;BME280;40363;52.270;10.546;2023-05-12T01:59:20;76532.47;;;-147.06;100.00
54453;BME280;40363;52.270;10.546;2023-05-12T02:01:48;76526.28;;;-147.06;100.00
54453;BME280;40363;52.270;10.546;2023-05-12T02:04:14;76534.50;;;-147.06;100.00
54453;BME280;40363;52.270;10.546;2023-05-12T02:06:41;76536.56;;;-147.06;100.00
54453;BME280;40363;52.270;10.546;2023-05-12T02:09:07;76538.63;;;-147.06;100.00
54453;BME280;40363;52.270;10.546;2023-05-12T02:11:34;76540.69;;;-147.06;100.00
54453;BME280;40363;52.270;10.546;2023-05-12T02:14:00;76548.91;;;-147.06;100.00
54453;BME280;40363;52.270;10.546;2023-05-12T02:16:27;76546.84;;;-147.06;100.00
54453;BME280;40363;52.270;10.546;2023-05-12T02:18:55;76550.97;;;-147.06;100.00
54453;BME280;40363;52.270;10.546;2023-05-12T02:21:21;76546.84;;;-147.06;100.00
54453;BME280;40363;52.270;10.546;2023-05-12T02:23:48;76546.84;;;-147.06;100.00
54453;BME280;40363;52.270;10.546;2023-05-12T02:26:14;76548.91;;;-147.06;100.00
54453;BME280;40363;52.270;10.546;2023-05-12T02:28:41;76553.00;;;-147.06;100.00
54453;BME280;40363;52.270;10.546;2023-05-12T02:31:08;76555.06;;;-147.06;100.00
54453;BME280;40363;52.270;10.546;2023-05-12T02:33:34;76557.13;;;-147.06;100.00
54453;BME280;40363;52.270;10.546;2023-05-12T02:36:02;76567.41;;;-147.06;100.00
54453;BME280;40363;52.270;10.546;2023-05-12T02:38:29;76565.34;;;-147.06;100.00
54453;BME280;40363;52.270;10.546;2023-05-12T02:40:55;76559.19;;;-147.06;100.00
54453;BME280;40363;52.270;10.546;2023-05-12T02:43:22;76561.22;;;-147.06;100.00
54453;BME280;40363;52.270;10.546;2023-05-12T02:45:48;76567.41;;;-147.06;100.00
54453;BME280;40363;52.270;10.546;2023-05-12T02:48:16;76592.06;;;-147.06;100.00
54453;BME280;40363;52.270;10.546;2023-05-12T02:50:42;76579.72;;;-147.06;100.00
54453;BME280;40363;52.270;10.546;2023-05-12T02:53:10;76583.84;;;-147.06;100.00
54453;BME280;40363;52.270;10.546;2023-05-12T02:55:37;76620.84;;;-147.06;100.00
54453;BME280;40363;52.270;10.546;2023-05-12T02:58:04;76629.06;;;-147.06;100.00
54453;BME280;40363;52.270;10.546;2023-05-12T03:00:30;76612.63;;;-147.06;100.00
54453;BME280;40363;52.270;10.546;2023-05-12T03:02:57;76616.72;;;-147.06;100.00
54453;BME280;40363;52.270;10.546;2023-05-12T03:05:23;76616.72;;;-147.06;100.00
54453;BME280;40363;52.270;10.546;2023-05-12T03:07:50;76616.72;;;-147.06;100.00
54453;BME280;40363;52.270;10.546;2023-05-12T03:10:18;76616.72;;;-147.06;100.00
54453;BME280;40363;52.270;10.546;2023-05-12T03:12:44;76622.91;;;-147.06;100.00
54453;BME280;40363;52.270;10.546;2023-05-12T03:15:11;76637.28;;;-147.06;100.00
54453;BME280;40363;52.270;10.546;2023-05-12T03:17:37;76624.94;;;-147.06;100.00
54453;BME280;40363;52.270;10.546;2023-05-12T03:20:05;76622.91;;;-147.06;100.00
54453;BME280;40363;52.270;10.546;2023-05-12T03:22:32;76627.00;;;-147.06;100.00
54453;BME280;40363;52.270;10.546;2023-05-12T03:24:59;76637.28;;;-147.06;100.00
54453;BME280;40363;52.270;10.546;2023-05-12T03:27:27;76635.22;;;-147.06;100.00
54453;BME280;40363;52.270;10.546;2023-05-12T03:29:53;76639.34;;;-147.06;100.00
54453;BME280;40363;52.270;10.546;2023-05-12T03:32:20;76645.50;;;-147.06;100.00
54453;BME280;40363;52.270;10.546;2023-05-12T03:34:46;76645.50;;;-147.06;100.00
54453;BME280;40363;52.270;10.546;2023-05-12T03:37:13;76637.28;;;-147.06;100.00
54453;BME280;40363;52.270;10.546;2023-05-12T03:39:40;76641.41;;;-147.06;100.00
54453;BME280;40363;52.270;10.546;2023-05-12T03:42:06;76651.66;;;-147.06;100.00
54453;BME280;40363;52.270;10.546;2023-05-12T03:44:34;76631.13;;;-147.06;100.00
54453;BME280;40363;52.270;10.546;2023-05-12T03:47:01;76651.66;;;-147.06;100.00
54453;BME280;40363;52.270;10.546;2023-05-12T03:49:27;76641.41;;;-147.06;100.00
54453;BME280;40363;52.270;10.546;2023-05-12T03:51:54;76639.34;;;-147.06;100.00
54453;BME280;40363;52.270;10.546;2023-05-12T03:54:20;76641.41;;;-147.06;100.00
54453;BME280;40363;52.270;10.546;2023-05-12T03:56:47;76637.28;;;-147.06;100.00
54453;BME280;40363;52.270;10.546;2023-05-12T03:59:13;76627.00;;;-147.06;100.00
54453;BME280;40363;52.270;10.546;2023-05-12T04:01:41;76627.00;;;-147.06;100.00
54453;BME280;40363;52.270;10.546;2023-05-12T04:04:08;76624.94;;;-147.06;100.00
54453;BME280;40363;52.270;10.546;2023-05-12T04:06:34;76620.84;;;-147.06;100.00
54453;BME280;40363;52.270;10.546;2023-05-12T04:09:01;76627.00;;;-147.06;100.00
54453;BME280;40363;52.270;10.546;2023-05-12T04:11:27;76616.72;;;-147.06;100.00
54453;BME280;40363;52.270;10.546;2023-05-12T04:13:54;76622.91;;;-147.06;100.00
54453;BME280;40363;52.270;10.546;2023-05-12T04:16:21;76622.91;;;-147.06;100.00
54453;BME280;40363;52.270;10.546;2023-05-12T04:18:49;76610.56;;;-147.06;100.00
54453;BME280;40363;52.270;10.546;2023-05-12T04:21:16;76602.34;;;-147.06;100.00
54453;BME280;40363;52.270;10.546;2023-05-12T04:23:42;76590.00;;;-147.06;100.00
54453;BME280;40363;52.270;10.546;2023-05-12T04:26:09;76600.28;;;-147.06;100.00
54453;BME280;40363;52.270;10.546;2023-05-12T04:28:35;76604.41;;;-147.06;100.00
54453;BME280;40363;52.270;10.546;2023-05-12T04:31:02;76596.19;;;-147.06;100.00
54453;BME280;40363;52.270;10.546;2023-05-12T04:33:29;76590.00;;;-147.06;100.00
54453;BME280;40363;52.270;10.546;2023-05-12T04:35:57;76594.13;;;-147.06;100.00
54453;BME280;40363;52.270;10.546;2023-05-12T04:38:24;76604.41;;;-147.06;100.00
54453;BME280;40363;52.270;10.546;2023-05-12T04:40:56;76606.44;;;-147.06;100.00
54453;BME280;40363;52.270;10.546;2023-05-12T04:43:23;76598.22;;;-147.06;100.00
54453;BME280;40363;52.270;10.546;2023-05-12T04:45:49;76590.00;;;-147.06;100.00
54453;BME280;40363;52.270;10.546;2023-05-12T04:48:18;76620.84;;;-147.06;100.00
54453;BME280;40363;52.270;10.546;2023-05-12T04:50:47;76610.56;;;-147.06;100.00
54453;BME280;40363;52.270;10.546;2023-05-12T04:53:15;76596.19;;;-147.06;100.00
54453;BME280;40363;52.270;10.546;2023-05-12T04:55:42;76614.69;;;-147.06;100.00
54453;BME280;40363;52.270;10.546;2023-05-12T04:58:10;76616.72;;;-147.06;100.00
54453;BME280;40363;52.270;10.546;2023-05-12T05:00:37;76608.50;;;-147.06;100.00
54453;BME280;40363;52.270;10.546;2023-05-12T05:03:03;76581.78;;;-147.06;100.00
54453;BME280;40363;52.270;10.546;2023-05-12T05:05:30;76579.72;;;-147.06;100.00
54453;BME280;40363;52.270;10.546;2023-05-12T05:07:57;76565.34;;;-147.06;100.00
54453;BME280;40363;52.270;10.546;2023-05-12T05:10:25;76579.72;;;-147.06;100.00
54453;BME280;40363;52.270;10.546;2023-05-12T05:12:52;76575.63;;;-147.06;100.00
54453;BME280;40363;52.270;10.546;2023-05-12T05:15:18;76585.91;;;-147.06;100.00
54453;BME280;40363;52.270;10.546;2023-05-12T05:17:45;76592.06;;;-147.06;100.00
54453;BME280;40363;52.270;10.546;2023-05-12T05:20:13;76587.94;;;-147.06;100.00
54453;BME280;40363;52.270;10.546;2023-05-12T05:22:40;76592.06;;;-147.06;100.00
54453;BME280;40363;52.270;10.546;2023-05-12T05:25:07;76587.94;;;-147.06;100.00
54453;BME280;40363;52.270;10.546;2023-05-12T05:27:36;76598.22;;;-147.06;100.00
54453;BME280;40363;52.270;10.546;2023-05-12T05:30:03;76604.41;;;-147.06;100.00
54453;BME280;40363;52.270;10.546;2023-05-12T05:32:30;76583.84;;;-147.06;100.00
54453;BME280;40363;52.270;10.546;2023-05-12T05:34:56;76555.06;;;-147.06;100.00
54453;BME280;40363;52.270;10.546;2023-05-12T05:37:23;76567.41;;;-147.06;100.00
54453;BME280;40363;52.270;10.546;2023-05-12T05:39:50;76567.41;;;-147.06;100.00
54453;BME280;40363;52.270;10.546;2023-05-12T05:42:16;76550.97;;;-147.06;100.00
54453;BME280;40363;52.270;10.546;2023-05-12T05:44:44;76524.22;;;-147.06;100.00
54453;BME280;40363;52.270;10.546;2023-05-12T05:47:11;76544.78;;;-147.06;100.00
54453;BME280;40363;52.270;10.546;2023-05-12T05:49:37;76544.78;;;-147.06;100.00
54453;BME280;40363;52.270;10.546;2023-05-12T05:52:04;76526.28;;;-147.06;100.00
54453;BME280;40363;52.270;10.546;2023-05-12T05:54:31;76509.84;;;-147.06;100.00
54453;BME280;40363;52.270;10.546;2023-05-12T05:56:57;76518.06;;;-147.06;100.00
54453;BME280;40363;52.270;10.546;2023-05-12T05:59:26;76509.84;;;-147.06;100.00
54453;BME280;40363;52.270;10.546;2023-05-12T06:01:54;76505.75;;;-147.06;100.00
54453;BME280;40363;52.270;10.546;2023-05-12T06:04:20;76497.50;;;-147.06;100.00
54453;BME280;40363;52.270;10.546;2023-05-12T06:06:47;76497.50;;;-147.06;100.00
54453;BME280;40363;52.270;10.546;2023-05-12T06:09:13;76509.84;;;-147.06;100.00
54453;BME280;40363;52.270;10.546;2023-05-12T06:11:40;76526.28;;;-147.06;100.00
54453;BME280;40363;52.270;10.546;2023-05-12T06:14:07;76509.84;;;-147.06;100.00
54453;BME280;40363;52.270;10.546;2023-05-12T06:16:33;76516.00;;;-147.06;100.00
54453;BME280;40363;52.270;10.546;2023-05-12T06:19:01;76505.75;;;-147.06;100.00
54453;BME280;40363;52.270;10.546;2023-05-12T06:21:28;76503.69;;;-147.06;100.00
54453;BME280;40363;52.270;10.546;2023-05-12T06:23:56;76507.78;;;-147.06;100.00
54453;BME280;40363;52.270;10.546;2023-05-12T06:26:22;76489.28;;;-147.06;100.00
54453;BME280;40363;52.270;10.546;2023-05-12T06:28:49;76495.47;;;-147.06;100.00
54453;BME280;40363;52.270;10.546;2023-05-12T06:31:15;76485.19;;;-147.06;100.00
54453;BME280;40363;52.270;10.546;2023-05-12T06:33:42;76489.28;;;-147.06;100.00
54453;BME280;40363;52.270;10.546;2023-05-12T06:36:10;76487.25;;;-147.06;100.00
54453;BME280;40363;52.270;10.546;2023-05-12T06:38:37;76491.34;;;-147.06;100.00
54453;BME280;40363;52.270;10.546;2023-05-12T06:41:03;76485.19;;;-147.06;100.00
54453;BME280;40363;52.270;10.546;2023-05-12T06:43:30;76493.41;;;-147.06;100.00
54453;BME280;40363;52.270;10.546;2023-05-12T06:45:56;76470.78;;;-147.06;100.00
54453;BME280;40363;52.270;10.546;2023-05-12T06:48:23;76448.19;;;-147.06;100.00
54453;BME280;40363;52.270;10.546;2023-05-12T06:50:50;76431.75;;;-147.06;100.00
54453;BME280;40363;52.270;10.546;2023-05-12T06:53:18;76435.84;;;-147.06;100.00
54453;BME280;40363;52.270;10.546;2023-05-12T06:55:44;76409.13;;;-147.06;100.00
54453;BME280;40363;52.270;10.546;2023-05-12T06:58:11;76384.47;;;-147.06;100.00
54453;BME280;40363;52.270;10.546;2023-05-12T07:00:38;76363.91;;;-147.06;100.00
54453;BME280;40363;52.270;10.546;2023-05-12T07:03:04;76335.13;;;-147.06;100.00
54453;BME280;40363;52.270;10.546;2023-05-12T07:05:34;76308.44;;;-147.06;100.00
54453;BME280;40363;52.270;10.546;2023-05-12T07:08:01;76174.84;;;-147.06;98.55
54453;BME280;40363;52.270;10.546;2023-05-12T07:10:29;76199.50;;;-147.06;95.77
54453;BME280;40363;52.270;10.546;2023-05-12T07:12:56;76201.56;;;-147.06;97.31
54453;BME280;40363;52.270;10.546;2023-05-12T07:15:22;76220.03;;;-147.06;95.22
54453;BME280;40363;52.270;10.546;2023-05-12T07:17:49;76220.03;;;-147.06;94.75
54453;BME280;40363;52.270;10.546;2023-05-12T07:20:16;76240.59;;;-147.06;94.32
54453;BME280;40363;52.270;10.546;2023-05-12T07:22:43;76230.31;;;-147.06;89.21
54453;BME280;40363;52.270;10.546;2023-05-12T07:25:09;76215.94;;;-147.06;92.03
54453;BME280;40363;52.270;10.546;2023-05-12T07:27:38;76197.44;;;-147.06;91.00
54453;BME280;40363;52.270;10.546;2023-05-12T07:30:06;76185.09;;;-147.06;88.25
54453;BME280;40363;52.270;10.546;2023-05-12T07:32:32;76146.06;;;-147.06;85.21
54453;BME280;40363;52.270;10.546;2023-05-12T07:34:59;76076.19;;;-147.06;85.08
54453;BME280;40363;52.270;10.546;2023-05-12T07:37:26;75913.81;;;-147.06;73.50
54453;BME280;40363;52.270;10.546;2023-05-12T07:39:52;75979.59;;;-147.06;77.27
54453;BME280;40363;52.270;10.546;2023-05-12T07:42:19;76010.41;;;-147.06;82.29
54453;BME280;40363;52.270;10.546;2023-05-12T07:44:48;76078.25;;;-147.06;84.55
54453;BME280;40363;52.270;10.546;2023-05-12T07:47:14;76035.09;;;-147.06;80.81
54453;BME280;40363;52.270;10.546;2023-05-12T07:49:41;76028.91;;;-147.06;78.27
54453;BME280;40363;52.270;10.546;2023-05-12T07:52:08;75991.91;;;-147.06;76.68
54453;BME280;40363;52.270;10.546;2023-05-12T07:54:34;75895.34;;;-147.06;72.80
54453;BME280;40363;52.270;10.546;2023-05-12T07:57:02;75819.28;;;-147.06;74.37
54453;BME280;40363;52.270;10.546;2023-05-12T07:59:28;75833.69;;;-147.06;72.50
54453;BME280;40363;52.270;10.546;2023-05-12T08:01:56;75889.16;;;-147.06;70.38
54453;BME280;40363;52.270;10.546;2023-05-12T08:04:23;75852.19;;;-147.06;68.94
54453;BME280;40363;52.270;10.546;2023-05-12T08:06:49;75733.00;;;-147.06;70.12
54453;BME280;40363;52.270;10.546;2023-05-12T08:09:16;75650.78;;;-147.06;66.50
54453;BME280;40363;52.270;10.546;2023-05-12T08:11:42;75642.56;;;-147.06;61.93
54453;BME280;40363;52.270;10.546;2023-05-12T08:14:09;75601.47;;;-147.06;64.30
54453;BME280;40363;52.270;10.546;2023-05-12T08:16:36;75548.03;;;-147.06;62.92
54453;BME280;40363;52.270;10.546;2023-05-12T08:19:03;75494.63;;;-147.06;59.17
54453;BME280;40363;52.270;10.546;2023-05-12T08:21:30;75441.19;;;-147.06;59.31
54453;BME280;40363;52.270;10.546;2023-05-12T08:23:57;75383.66;;;-147.06;58.51
54453;BME280;40363;52.270;10.546;2023-05-12T08:26:24;75328.19;;;-147.06;57.43
54453;BME280;40363;52.270;10.546;2023-05-12T08:28:51;75285.03;;;-147.06;59.61
54453;BME280;40363;52.270;10.546;2023-05-12T08:31:17;75299.41;;;-147.06;56.32
54453;BME280;40363;52.270;10.546;2023-05-12T08:33:45;75344.63;;;-147.06;54.93
54453;BME280;40363;52.270;10.546;2023-05-12T08:36:13;75313.78;;;-147.06;51.76
54453;BME280;40363;52.270;10.546;2023-05-12T08:38:40;75332.28;;;-147.06;50.33
54453;BME280;40363;52.270;10.546;2023-05-12T08:41:11;75354.88;;;-147.06;48.64
54453;BME280;40363;52.270;10.546;2023-05-12T08:43:43;75301.47;;;-147.06;50.50
54453;BME280;40363;52.270;10.546;2023-05-12T08:46:10;75317.91;;;-147.06;48.34
54453;BME280;40363;52.270;10.546;2023-05-12T08:48:38;75359.00;;;-147.06;48.55
54453;BME280;40363;52.270;10.546;2023-05-12T08:51:06;75334.34;;;-147.06;48.87
54453;BME280;40363;52.270;10.546;2023-05-12T08:53:36;75332.28;;;-147.06;50.28
54453;BME280;40363;52.270;10.546;2023-05-12T08:56:05;75282.97;;;-147.06;47.37
54453;BME280;40363;52.270;10.546;2023-05-12T08:58:33;75287.06;;;-147.06;49.34
54453;BME280;40363;52.270;10.546;2023-05-12T09:01:02;75264.47;;;-147.06;46.05
54453;BME280;40363;52.270;10.546;2023-05-12T09:03:30;75206.94;;;-147.06;47.60
54453;BME280;40363;52.270;10.546;2023-05-12T09:05:57;75340.50;;;-147.06;46.24
54453;BME280;40363;52.270;10.546;2023-05-12T09:08:24;75550.09;;;-147.06;49.79
54453;BME280;40363;52.270;10.546;2023-05-12T09:10:55;75478.19;;;-147.06;48.91
54453;BME280;40363;52.270;10.546;2023-05-12T09:13:27;75445.31;;;-147.06;51.37
54453;BME280;40363;52.270;10.546;2023-05-12T09:15:54;75480.22;;;-147.06;52.28
54453;BME280;40363;52.270;10.546;2023-05-12T09:18:23;75432.97;;;-147.06;50.64
54453;BME280;40363;52.270;10.546;2023-05-12T09:20:49;75375.44;;;-147.06;48.07
54453;BME280;40363;52.270;10.546;2023-05-12T09:23:18;75361.06;;;-147.06;46.12
54453;BME280;40363;52.270;10.546;2023-05-12T09:25:45;75317.91;;;-147.06;47.49
54453;BME280;40363;52.270;10.546;2023-05-12T09:28:13;75391.88;;;-147.06;45.86
54453;BME280;40363;52.270;10.546;2023-05-12T09:30:40;75326.13;;;-147.06;47.95
54453;BME280;40363;52.270;10.546;2023-05-12T09:33:07;75441.19;;;-147.06;47.73
54453;BME280;40363;52.270;10.546;2023-05-12T09:35:42;75387.75;;;-147.06;48.43
54453;BME280;40363;52.270;10.546;2023-05-12T09:38:09;75348.72;;;-147.06;47.47
54453;BME280;40363;52.270;10.546;2023-05-12T09:40:36;75354.88;;;-147.06;47.89
54453;BME280;40363;52.270;10.546;2023-05-12T09:43:04;75303.53;;;-147.06;46.93
54453;BME280;40363;52.270;10.546;2023-05-12T09:45:33;75276.81;;;-147.06;47.88
54453;BME280;40363;52.270;10.546;2023-05-12T09:48:07;75322.00;;;-147.06;44.93
54453;BME280;40363;52.270;10.546;2023-05-12T09:50:42;75289.13;;;-147.06;45.73
54453;BME280;40363;52.270;10.546;2023-05-12T09:53:09;75305.56;;;-147.06;45.72
54453;BME280;40363;52.270;10.546;2023-05-12T09:55:36;75363.09;;;-147.06;44.95
54453;BME280;40363;52.270;10.546;2023-05-12T09:58:07;75328.19;;;-147.06;47.52
54453;BME280;40363;52.270;10.546;2023-05-12T10:00:36;75361.06;;;-147.06;45.94
54453;BME280;40363;52.270;10.546;2023-05-12T10:03:09;75326.13;;;-147.06;44.73
54453;BME280;40363;52.270;10.546;2023-05-12T10:05:37;75371.31;;;-147.06;45.73
54453;BME280;40363;52.270;10.546;2023-05-12T10:08:06;75385.72;;;-147.06;42.52
54453;BME280;40363;52.270;10.546;2023-05-12T10:10:33;75330.22;;;-147.06;40.29
54453;BME280;40363;52.270;10.546;2023-05-12T10:13:01;75336.41;;;-147.06;40.91
54453;BME280;40363;52.270;10.546;2023-05-12T10:15:29;75478.19;;;-147.06;39.24
54453;BME280;40363;52.270;10.546;2023-05-12T10:17:58;75451.47;;;-147.06;38.05
54453;BME280;40363;52.270;10.546;2023-05-12T10:20:25;75432.97;;;-147.06;39.78
54453;BME280;40363;52.270;10.546;2023-05-12T10:22:53;75416.53;;;-147.06;40.16
54453;BME280;40363;52.270;10.546;2023-05-12T10:25:21;75461.75;;;-147.06;41.00
54453;BME280;40363;52.270;10.546;2023-05-12T10:27:48;75525.44;;;-147.06;43.55
54453;BME280;40363;52.270;10.546;2023-05-12T10:30:16;75408.31;;;-147.06;41.75
54453;BME280;40363;52.270;10.546;2023-05-12T10:32:43;75404.19;;;-147.06;41.32
54453;BME280;40363;52.270;10.546;2023-05-12T10:35:12;75420.63;;;-147.06;41.90
54453;BME280;40363;52.270;10.546;2023-05-12T10:37:41;75389.81;;;-147.06;39.81
54453;BME280;40363;52.270;10.546;2023-05-12T10:40:08;75422.69;;;-147.06;41.65
54453;BME280;40363;52.270;10.546;2023-05-12T10:42:37;75453.53;;;-147.06;39.40
54453;BME280;40363;52.270;10.546;2023-05-12T10:45:14;75437.06;;;-147.06;40.32
54453;BME280;40363;52.270;10.546;2023-05-12T10:47:41;75445.31;;;-147.06;41.99
54453;BME280;40363;52.270;10.546;2023-05-12T10:50:09;75568.59;;;-147.06;40.88
54453;BME280;40363;52.270;10.546;2023-05-12T10:52:39;75550.09;;;-147.06;41.46
54453;BME280;40363;52.270;10.546;2023-05-12T10:55:10;75447.34;;;-147.06;36.73
54453;BME280;40363;52.270;10.546;2023-05-12T10:57:47;75476.13;;;-147.06;36.91
54453;BME280;40363;52.270;10.546;2023-05-12T11:00:15;75564.47;;;-147.06;36.15
54453;BME280;40363;52.270;10.546;2023-05-12T11:02:48;75556.25;;;-147.06;38.55
54453;BME280;40363;52.270;10.546;2023-05-12T11:05:15;75558.31;;;-147.06;39.13
54453;BME280;40363;52.270;10.546;2023-05-12T11:07:47;75546.00;;;-147.06;39.07
54453;BME280;40363;52.270;10.546;2023-05-12T11:10:14;75490.50;;;-147.06;37.41
54453;BME280;40363;52.270;10.546;2023-05-12T11:12:42;75447.34;;;-147.06;37.64
54453;BME280;40363;52.270;10.546;2023-05-12T11:15:10;75445.31;;;-147.06;36.19
54453;BME280;40363;52.270;10.546;2023-05-12T11:17:38;75494.63;;;-147.06;36.75
54453;BME280;40363;52.270;10.546;2023-05-12T11:20:06;75543.94;;;-147.06;36.79
54453;BME280;40363;52.270;10.546;2023-05-12T11:22:34;75515.16;;;-147.06;36.56
54453;BME280;40363;52.270;10.546;2023-05-12T11:25:09;75469.97;;;-147.06;35.50
54453;BME280;40363;52.270;10.546;2023-05-12T11:27:36;75461.75;;;-147.06;34.26
54453;BME280;40363;52.270;10.546;2023-05-12T11:30:07;75498.72;;;-147.06;36.71
54453;BME280;40363;52.270;10.546;2023-05-12T11:32:35;75443.25;;;-147.06;35.19
54453;BME280;40363;52.270;10.546;2023-05-12T11:35:09;75432.97;;;-147.06;35.03
54453;BME280;40363;52.270;10.546;2023-05-12T11:37:36;75443.25;;;-147.06;35.54
54453;BME280;40363;52.270;10.546;2023-05-12T11:40:15;75492.56;;;-147.06;35.61
54453;BME280;40363;52.270;10.546;2023-05-12T11:42:42;75515.16;;;-147.06;34.48
54453;BME280;40363;52.270;10.546;2023-05-12T11:45:23;75500.78;;;-147.06;34.94
54453;BME280;40363;52.270;10.546;2023-05-12T11:47:51;75480.22;;;-147.06;33.88
54453;BME280;40363;52.270;10.546;2023-05-12T11:50:22;75447.34;;;-147.06;34.63
54453;BME280;40363;52.270;10.546;2023-05-12T11:52:50;75474.06;;;-147.06;33.02
54453;BME280;40363;52.270;10.546;2023-05-12T11:55:23;75463.78;;;-147.06;34.03
54453;BME280;40363;52.270;10.546;2023-05-12T11:57:57;75445.31;;;-147.06;34.11
54453;BME280;40363;52.270;10.546;2023-05-12T12:00:32;75426.81;;;-147.06;32.63
54453;BME280;40363;52.270;10.546;2023-05-12T12:03:06;75441.19;;;-147.06;32.39
54453;BME280;40363;52.270;10.546;2023-05-12T12:05:33;75412.41;;;-147.06;33.94
54453;BME280;40363;52.270;10.546;2023-05-12T12:08:07;75408.31;;;-147.06;32.43
54453;BME280;40363;52.270;10.546;2023-05-12T12:10:37;75476.13;;;-147.06;33.15
54453;BME280;40363;52.270;10.546;2023-05-12T12:13:06;75486.41;;;-147.06;34.18
54453;BME280;40363;52.270;10.546;2023-05-12T12:15:33;75519.28;;;-147.06;33.93
54453;BME280;40363;52.270;10.546;2023-05-12T12:18:00;75543.94;;;-147.06;32.97
54453;BME280;40363;52.270;10.546;2023-05-12T12:20:27;75564.47;;;-147.06;33.50
54453;BME280;40363;52.270;10.546;2023-05-12T12:22:53;75576.81;;;-147.06;34.21
54453;BME280;40363;52.270;10.546;2023-05-12T12:25:21;75568.59;;;-147.06;33.29
54453;BME280;40363;52.270;10.546;2023-05-12T12:27:49;75546.00;;;-147.06;33.46